createdAt,value
2022-09-06T00:01:15.134Z,1.20
2022-09-06T00:03:43.077Z,1.20
2022-09-06T00:06:12.599Z,1.13
2022-09-06T00:08:42.386Z,1.40
2022-09-06T00:11:10.491Z,1.20
2022-09-06T00:13:39.299Z,1.30
2022-09-06T00:16:09.522Z,1.20
2022-09-06T00:18:37.584Z,1.40
2022-09-06T00:21:13.193Z,1.50
2022-09-06T00:23:42.420Z,1.40
2022-09-06T00:26:10.330Z,1.30
2022-09-06T00:28:38.368Z,1.23
2022-09-06T00:31:11.019Z,1.37
2022-09-06T00:33:39.051Z,1.30
2022-09-06T00:36:07.138Z,1.53
2022-09-06T00:38:35.077Z,1.30
2022-09-06T00:41:04.476Z,1.27
2022-09-06T00:43:32.835Z,1.60
2022-09-06T00:46:02.155Z,1.40
2022-09-06T00:48:30.124Z,1.40
2022-09-06T00:51:01.272Z,1.50
2022-09-06T00:53:29.540Z,1.30
2022-09-06T00:55:57.453Z,1.50
2022-09-06T00:58:27.829Z,1.50
2022-09-06T01:00:55.977Z,1.37
2022-09-06T01:03:25.150Z,1.50
2022-09-06T01:06:06.702Z,1.40
2022-09-06T01:08:52.376Z,1.70
2022-09-06T01:11:34.186Z,1.47
2022-09-06T01:14:11.594Z,1.50
2022-09-06T01:16:44.408Z,1.53
2022-09-06T01:19:42.434Z,1.40
2022-09-06T01:22:21.073Z,1.50
2022-09-06T01:25:20.206Z,1.30
2022-09-06T01:28:18.430Z,1.40
2022-09-06T01:30:52.860Z,1.33
2022-09-06T01:33:25.571Z,1.53
2022-09-06T01:35:58.327Z,1.90
2022-09-06T01:38:26.520Z,1.53
2022-09-06T01:40:54.316Z,1.50
2022-09-06T01:43:28.635Z,1.20
2022-09-06T01:46:04.495Z,1.80
2022-09-06T01:48:45.002Z,1.87
2022-09-06T01:51:20.864Z,1.50
2022-09-06T01:54:02.868Z,1.40
2022-09-06T01:56:38.386Z,1.50
2022-09-06T01:59:21.397Z,1.67
2022-09-06T02:01:57.057Z,1.40
2022-09-06T02:04:29.350Z,1.60
2022-09-06T02:07:02.716Z,1.40
2022-09-06T02:09:37.070Z,1.67
2022-09-06T02:12:06.916Z,1.40
2022-09-06T02:14:40.445Z,1.50
2022-09-06T02:17:10.864Z,1.33
2022-09-06T02:19:45.154Z,1.23
2022-09-06T02:22:16.450Z,1.60
2022-09-06T02:24:48.212Z,1.60
2022-09-06T02:27:16.321Z,1.30
2022-09-06T02:29:45.762Z,1.50
2022-09-06T02:32:18.863Z,1.23
2022-09-06T02:34:47.570Z,1.40
2022-09-06T02:37:17.306Z,1.60
2022-09-06T02:39:45.275Z,1.40
2022-09-06T02:42:15.252Z,1.80
2022-09-06T02:44:43.036Z,1.33
2022-09-06T02:47:12.203Z,1.33
2022-09-06T02:49:39.945Z,1.30
2022-09-06T02:52:07.694Z,1.70
2022-09-06T02:54:35.507Z,1.43
2022-09-06T02:57:03.316Z,1.50
2022-09-06T02:59:31.127Z,1.30
2022-09-06T03:01:58.987Z,1.87
2022-09-06T03:04:28.136Z,1.53
2022-09-06T03:06:56.262Z,1.83
2022-09-06T03:09:25.002Z,1.40
2022-09-06T03:11:52.747Z,1.60
2022-09-06T03:14:20.458Z,1.40
2022-09-06T03:16:48.332Z,1.87
2022-09-06T03:19:16.101Z,1.57
2022-09-06T03:21:45.434Z,1.43
2022-09-06T03:24:13.205Z,1.57
2022-09-06T03:26:40.971Z,1.67
2022-09-06T03:29:08.764Z,1.57
2022-09-06T03:31:36.620Z,1.57
2022-09-06T03:34:07.027Z,1.37
2022-09-06T03:36:38.288Z,1.70
2022-09-06T03:39:07.849Z,1.50
2022-09-06T03:41:35.618Z,1.47
2022-09-06T03:44:03.873Z,1.40
2022-09-06T03:46:31.689Z,1.30
2022-09-06T03:49:01.811Z,1.50
2022-09-06T03:51:29.766Z,1.50
2022-09-06T03:53:57.647Z,1.23
2022-09-06T03:56:27.057Z,1.50
2022-09-06T03:58:55.222Z,1.70
2022-09-06T04:01:23.073Z,1.40
2022-09-06T04:03:50.966Z,1.60
2022-09-06T04:06:18.845Z,1.30
2022-09-06T04:08:46.629Z,1.30
2022-09-06T04:11:14.393Z,1.20
2022-09-06T04:13:43.508Z,1.20
2022-09-06T04:16:11.440Z,1.63
2022-09-06T04:18:39.421Z,1.30
2022-09-06T04:21:07.535Z,1.40
2022-09-06T04:23:39.241Z,1.53
2022-09-06T04:26:07.972Z,1.40
2022-09-06T04:28:35.736Z,1.40
2022-09-06T04:31:05.522Z,1.30
2022-09-06T04:33:35.438Z,1.20
2022-09-06T04:36:05.619Z,1.40
2022-09-06T04:38:37.912Z,1.40
2022-09-06T04:41:06.285Z,1.47
2022-09-06T04:43:34.070Z,1.47
2022-09-06T04:46:06.502Z,1.17
2022-09-06T04:48:34.602Z,1.30
2022-09-06T04:51:02.324Z,1.40
2022-09-06T04:53:30.139Z,1.20
2022-09-06T04:55:58.849Z,1.37
2022-09-06T04:58:26.763Z,1.20
2022-09-06T05:00:54.819Z,1.20
2022-09-06T05:03:24.133Z,1.40
2022-09-06T05:05:51.977Z,1.40
2022-09-06T05:08:19.871Z,1.40
2022-09-06T05:10:47.612Z,1.30
2022-09-06T05:13:15.340Z,1.20
2022-09-06T05:15:43.162Z,1.30
2022-09-06T05:18:14.173Z,1.33
2022-09-06T05:20:45.244Z,1.40
2022-09-06T05:23:12.957Z,1.27
2022-09-06T05:25:40.738Z,1.00
2022-09-06T05:28:08.557Z,1.30
2022-09-06T05:30:36.313Z,1.17
2022-09-06T05:33:04.119Z,1.20
2022-09-06T05:35:31.918Z,1.10
2022-09-06T05:38:00.974Z,1.33
2022-09-06T05:40:28.906Z,1.53
2022-09-06T05:42:56.692Z,1.10
2022-09-06T05:45:24.737Z,1.30
2022-09-06T05:47:52.505Z,1.20
2022-09-06T05:50:20.274Z,1.50
2022-09-06T05:52:48.289Z,1.10
2022-09-06T05:55:17.559Z,1.43
2022-09-06T05:57:45.493Z,1.20
2022-09-06T06:00:14.504Z,1.30
2022-09-06T06:02:42.344Z,1.10
2022-09-06T06:05:10.373Z,1.27
2022-09-06T06:07:38.112Z,1.33
2022-09-06T06:10:06.703Z,1.30
2022-09-06T06:12:35.929Z,1.30
2022-09-06T06:15:05.566Z,1.30
2022-09-06T06:17:33.377Z,1.20
2022-09-06T06:20:01.178Z,1.30
2022-09-06T06:22:28.954Z,1.20
2022-09-06T06:24:56.890Z,1.20
2022-09-06T06:27:24.754Z,1.23
2022-09-06T06:29:53.821Z,1.47
2022-09-06T06:32:21.638Z,1.23
2022-09-06T06:34:49.438Z,1.20
2022-09-06T06:37:17.230Z,1.10
2022-09-06T06:39:44.993Z,1.43
2022-09-06T06:42:13.083Z,1.50
2022-09-06T06:44:53.660Z,1.20
2022-09-06T06:47:21.629Z,1.53
2022-09-06T06:49:49.377Z,1.13
2022-09-06T06:52:17.236Z,1.40
2022-09-06T06:54:44.985Z,1.20
2022-09-06T06:57:12.797Z,1.23
2022-09-06T06:59:40.770Z,1.40
2022-09-06T07:02:10.088Z,1.40
2022-09-06T07:04:37.938Z,1.70
2022-09-06T07:12:41.794Z,1.50
2022-09-06T07:15:10.296Z,1.47
2022-09-06T07:17:39.682Z,1.60
2022-09-06T07:22:40.583Z,1.80
2022-09-06T07:25:11.751Z,1.40
2022-09-06T07:27:48.680Z,1.50
2022-09-06T07:30:17.414Z,1.37
2022-09-06T07:32:46.481Z,1.40
2022-09-06T07:35:14.422Z,1.23
2022-09-06T07:37:42.207Z,1.73
2022-09-06T07:40:11.387Z,1.67
2022-09-06T07:42:39.363Z,1.63
2022-09-06T07:45:08.174Z,1.63
2022-09-06T07:53:16.562Z,1.80
2022-09-06T07:55:47.503Z,1.80
2022-09-06T07:58:15.372Z,1.50
2022-09-06T08:00:43.363Z,1.77
2022-09-06T08:03:11.309Z,1.70
2022-09-06T08:11:16.341Z,1.60
2022-09-06T08:13:44.273Z,1.80
2022-09-06T08:16:13.930Z,1.80
2022-09-06T08:18:42.018Z,1.70
2022-09-06T08:21:13.119Z,1.80
2022-09-06T08:23:43.621Z,1.83
2022-09-06T08:26:11.929Z,1.80
2022-09-06T08:28:39.684Z,1.80
2022-09-06T08:31:09.184Z,1.87
2022-09-06T08:33:37.556Z,2.03
2022-09-06T08:36:06.368Z,1.50
2022-09-06T08:38:36.030Z,1.80
2022-09-06T08:41:09.406Z,1.60
2022-09-06T08:43:38.176Z,1.80
2022-09-06T08:46:08.470Z,1.97
2022-09-06T08:48:39.618Z,1.90
2022-09-06T08:51:22.357Z,1.77
2022-09-06T08:53:56.515Z,1.60
2022-09-06T08:56:29.283Z,1.60
2022-09-06T08:59:04.731Z,1.80
2022-09-06T09:01:41.461Z,1.80
2022-09-06T09:04:16.217Z,2.10
2022-09-06T09:06:47.531Z,2.10
2022-09-06T09:09:17.728Z,2.10
2022-09-06T09:11:51.378Z,2.10
2022-09-06T09:14:23.294Z,2.00
2022-09-06T09:16:51.784Z,1.70
2022-09-06T09:19:19.613Z,2.00
2022-09-06T09:21:47.903Z,2.03
2022-09-06T09:24:17.298Z,1.90
2022-09-06T09:26:51.314Z,1.80
2022-09-06T09:29:24.003Z,2.50
2022-09-06T09:31:55.880Z,1.67
2022-09-06T09:34:33.566Z,1.80
2022-09-06T09:40:13.881Z,1.80
2022-09-06T09:42:42.005Z,1.93
2022-09-06T09:45:24.859Z,1.70
2022-09-06T09:47:52.831Z,1.73
2022-09-06T09:50:27.231Z,1.97
2022-09-06T09:52:55.548Z,1.90
2022-09-06T09:55:26.776Z,2.13
2022-09-06T09:57:56.177Z,1.93
2022-09-06T10:00:35.950Z,2.17
2022-09-06T10:03:13.409Z,1.80
2022-09-06T10:05:42.473Z,1.80
2022-09-06T10:08:13.255Z,2.10
2022-09-06T10:10:47.481Z,1.80
2022-09-06T10:13:20.592Z,2.03
2022-09-06T10:15:49.601Z,1.97
2022-09-06T10:18:29.631Z,1.80
2022-09-06T10:21:00.384Z,2.07
2022-09-06T10:26:33.395Z,1.90
2022-09-06T10:29:05.196Z,2.10
2022-09-06T10:32:04.903Z,1.90
2022-09-06T10:34:58.344Z,2.00
2022-09-06T10:37:53.065Z,1.83
2022-09-06T10:40:30.317Z,1.73
2022-09-06T10:43:02.254Z,1.83
2022-09-06T10:45:44.176Z,1.80
2022-09-06T10:48:18.020Z,1.70
2022-09-06T10:50:51.339Z,1.80
2022-09-06T10:53:41.184Z,1.80
2022-09-06T10:56:12.374Z,1.80
2022-09-06T11:01:40.059Z,1.80
2022-09-06T11:04:13.250Z,1.67
2022-09-06T11:06:46.440Z,1.90
2022-09-06T11:09:21.723Z,1.80
2022-09-06T11:11:58.166Z,2.10
2022-09-06T11:14:29.506Z,2.50
2022-09-06T11:17:01.416Z,2.40
2022-09-06T11:19:33.135Z,2.40
2022-09-06T11:22:20.556Z,2.43
2022-09-06T11:25:15.161Z,2.23
2022-09-06T11:27:46.165Z,2.17
2022-09-06T11:30:17.858Z,2.40
2022-09-06T11:32:50.103Z,2.57
2022-09-06T11:35:27.933Z,2.50
2022-09-06T11:38:02.602Z,2.60
2022-09-06T11:40:37.654Z,2.47
2022-09-06T11:43:42.780Z,2.50
2022-09-06T11:46:12.310Z,2.60
2022-09-06T11:49:04.783Z,2.50
2022-09-06T11:51:39.173Z,2.30
2022-09-06T11:54:26.857Z,2.40
2022-09-06T11:56:59.185Z,2.40
2022-09-06T11:59:43.100Z,2.40
2022-09-06T12:02:40.681Z,2.60
2022-09-06T12:05:20.466Z,2.50
2022-09-06T12:08:15.289Z,2.20
2022-09-06T12:10:50.948Z,2.10
2022-09-06T12:13:36.917Z,2.30
2022-09-06T12:16:04.782Z,2.20
2022-09-06T12:18:57.351Z,2.20
2022-09-06T12:21:40.714Z,2.13
2022-09-06T12:24:10.701Z,2.30
2022-09-06T12:26:51.891Z,2.20
2022-09-06T12:29:26.022Z,2.30
2022-09-06T12:31:55.381Z,2.63
2022-09-06T12:34:27.659Z,2.40
2022-09-06T12:36:58.824Z,2.20
2022-09-06T12:39:27.031Z,2.23
2022-09-06T12:41:58.170Z,2.13
2022-09-06T12:44:33.332Z,2.40
2022-09-06T12:47:06.837Z,2.07
2022-09-06T12:49:36.130Z,2.00
2022-09-06T12:52:08.749Z,2.20
2022-09-06T12:54:47.947Z,2.23
2022-09-06T12:57:20.096Z,2.10
2022-09-06T12:59:54.740Z,2.17
2022-09-06T13:02:28.667Z,2.20
2022-09-06T13:05:05.320Z,1.83
2022-09-06T13:07:35.239Z,2.10
2022-09-06T13:10:04.082Z,2.30
2022-09-06T13:12:34.928Z,2.10
2022-09-06T13:15:08.806Z,1.80
2022-09-06T13:17:38.309Z,2.00
2022-09-06T13:20:15.874Z,2.10
2022-09-06T13:22:46.189Z,1.83
2022-09-06T13:25:25.367Z,2.13
2022-09-06T13:27:58.122Z,2.20
2022-09-06T13:30:41.798Z,2.23
2022-09-06T13:33:24.367Z,2.13
2022-09-06T13:36:08.201Z,2.10
2022-09-06T13:38:42.309Z,2.40
2022-09-06T13:41:35.976Z,2.30
2022-09-06T13:44:07.921Z,2.20
2022-09-06T13:46:37.054Z,2.30
2022-09-06T13:49:06.026Z,1.93
2022-09-06T13:51:36.321Z,1.90
2022-09-06T13:54:05.634Z,2.20
2022-09-06T13:56:33.451Z,2.13
2022-09-06T13:59:01.258Z,2.00
2022-09-06T14:01:29.239Z,2.10
2022-09-06T14:03:57.490Z,2.27
2022-09-06T14:06:25.309Z,2.20
2022-09-06T14:09:06.850Z,2.60
2022-09-06T14:11:35.942Z,2.40
2022-09-06T14:14:03.823Z,2.43
2022-09-06T14:16:31.830Z,2.50
2022-09-06T14:18:59.741Z,2.30
2022-09-06T14:21:27.692Z,2.30
2022-09-06T14:24:03.373Z,2.57
2022-09-06T14:26:32.307Z,2.57
2022-09-06T14:29:00.314Z,2.23
2022-09-06T14:31:29.594Z,2.30
2022-09-06T14:33:58.143Z,2.30
2022-09-06T14:36:29.122Z,2.30
2022-09-06T14:38:59.997Z,2.40
2022-09-06T14:41:28.538Z,2.33
2022-09-06T14:43:58.006Z,2.20
2022-09-06T14:46:27.651Z,2.40
2022-09-06T14:49:00.153Z,2.40
2022-09-06T14:51:28.637Z,2.27
2022-09-06T14:53:59.603Z,2.37
2022-09-06T14:56:27.540Z,2.10
2022-09-06T14:58:57.492Z,2.47
2022-09-06T15:01:28.512Z,2.27
2022-09-06T15:03:58.378Z,2.00
2022-09-06T15:06:27.677Z,1.80
2022-09-06T15:08:59.354Z,2.00
2022-09-06T15:11:34.137Z,1.80
2022-09-06T15:14:02.649Z,2.00
2022-09-06T15:16:30.917Z,2.10
2022-09-06T15:18:59.330Z,1.80
2022-09-06T15:21:27.159Z,2.10
2022-09-06T15:23:55.560Z,2.00
2022-09-06T15:26:23.374Z,1.93
2022-09-06T15:28:53.630Z,1.70
2022-09-06T15:31:21.910Z,1.80
2022-09-06T15:33:51.972Z,2.00
2022-09-06T15:36:19.858Z,1.90
2022-09-06T15:38:49.634Z,1.80
2022-09-06T15:41:19.230Z,1.90
2022-09-06T15:43:48.261Z,2.00
2022-09-06T15:46:20.946Z,2.10
2022-09-06T15:48:50.534Z,2.00
2022-09-06T15:51:19.877Z,2.03
2022-09-06T15:53:48.217Z,1.97
2022-09-06T15:56:17.953Z,1.80
2022-09-06T15:58:46.396Z,2.07
2022-09-06T16:01:15.969Z,1.60
2022-09-06T16:03:46.885Z,1.93
2022-09-06T16:08:56.126Z,1.90
2022-09-06T16:11:24.113Z,1.90
2022-09-06T16:13:52.929Z,1.80
2022-09-06T16:16:22.421Z,2.47
2022-09-06T16:18:52.950Z,2.00
2022-09-06T16:21:23.885Z,1.80
2022-09-06T16:23:54.129Z,1.90
2022-09-06T16:26:23.061Z,1.60
2022-09-06T16:28:52.692Z,1.67
2022-09-06T16:31:21.977Z,1.80
2022-09-06T16:33:53.587Z,2.10
2022-09-06T16:36:22.458Z,2.10
2022-09-06T16:38:50.767Z,2.10
2022-09-06T16:41:20.933Z,2.00
2022-09-06T16:43:50.202Z,1.97
2022-09-06T16:46:18.228Z,1.80
2022-09-06T16:48:53.572Z,2.00
2022-09-06T16:51:22.988Z,1.90
2022-09-06T16:53:51.738Z,1.83
2022-09-06T16:56:22.062Z,2.00
2022-09-06T16:58:51.740Z,1.73
2022-09-06T17:01:20.041Z,1.70
2022-09-06T17:03:48.193Z,1.80
2022-09-06T17:06:18.178Z,1.80
2022-09-06T17:08:46.271Z,1.60
2022-09-06T17:11:16.283Z,1.73
2022-09-06T17:13:45.979Z,1.30
2022-09-06T17:16:32.267Z,1.70
2022-09-06T17:19:01.184Z,1.70
2022-09-06T17:21:31.110Z,1.73
2022-09-06T17:24:05.048Z,1.80
2022-09-06T17:26:34.187Z,1.60
2022-09-06T17:29:02.070Z,1.60
2022-09-06T17:31:30.379Z,1.60
2022-09-06T17:33:59.502Z,1.80
2022-09-06T17:36:30.341Z,1.50
2022-09-06T17:39:03.634Z,1.80
2022-09-06T17:41:36.528Z,1.50
2022-09-06T17:44:04.780Z,1.53
2022-09-06T17:46:32.852Z,1.70
2022-09-06T17:49:01.091Z,1.83
2022-09-06T17:51:29.203Z,2.17
2022-09-06T17:53:57.054Z,1.67
2022-09-06T17:56:26.844Z,1.70
2022-09-06T17:58:56.059Z,1.70
2022-09-06T18:01:25.296Z,1.80
2022-09-06T18:03:53.887Z,1.73
2022-09-06T18:06:24.323Z,1.73
2022-09-06T18:08:54.232Z,1.50
2022-09-06T18:11:24.492Z,1.53
2022-09-06T18:13:58.332Z,1.60
2022-09-06T18:16:27.053Z,1.70
2022-09-06T18:18:57.218Z,1.60
2022-09-06T18:21:26.890Z,2.03
2022-09-06T18:23:55.663Z,1.70
2022-09-06T18:26:24.324Z,1.80
2022-09-06T18:28:53.325Z,1.77
2022-09-06T18:31:23.817Z,1.60
2022-09-06T18:33:52.236Z,1.70
2022-09-06T18:36:20.783Z,1.63
2022-09-06T18:38:48.720Z,1.70
2022-09-06T18:41:35.126Z,1.70
2022-09-06T18:44:04.722Z,1.90
2022-09-06T18:46:36.104Z,2.00
2022-09-06T18:49:04.108Z,2.13
2022-09-06T18:51:31.940Z,1.90
2022-09-06T18:54:00.452Z,1.67
2022-09-06T18:56:28.865Z,1.70
2022-09-06T18:58:58.645Z,1.70
2022-09-06T19:01:29.059Z,1.50
2022-09-06T19:03:58.750Z,1.70
2022-09-06T19:06:28.250Z,1.60
2022-09-06T19:08:59.586Z,1.57
2022-09-06T19:11:27.623Z,1.60
2022-09-06T19:13:57.211Z,1.67
2022-09-06T19:16:26.570Z,1.87
2022-09-06T19:18:56.022Z,1.70
2022-09-06T19:21:27.388Z,1.80
2022-09-06T19:23:57.772Z,1.90
2022-09-06T19:26:27.327Z,1.90
2022-09-06T19:28:57.844Z,1.57
2022-09-06T19:31:27.378Z,1.70
2022-09-06T19:33:56.169Z,1.97
2022-09-06T19:36:27.655Z,2.00
2022-09-06T19:39:03.432Z,1.83
2022-09-06T19:41:33.628Z,2.30
2022-09-06T19:44:01.612Z,2.10
2022-09-06T19:46:29.590Z,2.10
2022-09-06T19:48:57.584Z,2.10
2022-09-06T19:51:26.773Z,1.87
2022-09-06T19:53:57.488Z,2.03
2022-09-06T19:56:29.945Z,1.97
2022-09-06T19:58:59.470Z,2.60
2022-09-06T20:01:30.902Z,2.20
2022-09-06T20:03:59.936Z,2.10
2022-09-06T20:06:29.391Z,2.00
2022-09-06T20:08:59.141Z,2.20
2022-09-06T20:11:29.139Z,2.20
2022-09-06T20:13:57.726Z,2.03
2022-09-06T20:16:26.511Z,2.00
2022-09-06T20:18:56.209Z,2.23
2022-09-06T20:21:24.032Z,2.40
2022-09-06T20:23:54.438Z,1.93
2022-09-06T20:26:23.710Z,2.00
2022-09-06T20:28:56.254Z,1.90
2022-09-06T20:31:24.783Z,2.10
2022-09-06T20:33:52.994Z,1.70
2022-09-06T20:36:21.470Z,1.80
2022-09-06T20:38:49.972Z,1.80
2022-09-06T20:41:21.153Z,1.50
2022-09-06T20:43:52.289Z,1.60
2022-09-06T20:46:22.059Z,1.80
2022-09-06T20:48:50.331Z,1.57
2022-09-06T20:51:19.727Z,1.60
2022-09-06T20:53:48.947Z,1.43
2022-09-06T20:56:20.096Z,1.77
2022-09-06T20:58:52.236Z,1.70
2022-09-06T21:01:22.837Z,1.50
2022-09-06T21:03:52.634Z,1.40
2022-09-06T21:06:21.730Z,1.40
2022-09-06T21:08:50.473Z,1.50
2022-09-06T21:11:20.079Z,1.60
2022-09-06T21:13:50.837Z,1.57
2022-09-06T21:16:24.017Z,1.40
2022-09-06T21:18:53.152Z,1.50
2022-09-06T21:21:22.305Z,1.63
2022-09-06T21:23:50.772Z,1.60
2022-09-06T21:26:20.191Z,1.53
2022-09-06T21:28:48.667Z,1.80
2022-09-06T21:31:18.184Z,1.60
2022-09-06T21:33:47.912Z,1.50
2022-09-06T21:36:18.075Z,1.43
2022-09-06T21:38:47.987Z,1.70
2022-09-06T21:41:18.309Z,1.50
2022-09-06T21:43:47.656Z,1.43
2022-09-06T21:46:17.298Z,1.40
2022-09-06T21:48:46.804Z,1.40
2022-09-06T21:51:16.650Z,1.60
2022-09-06T21:53:46.659Z,1.43
2022-09-06T21:56:15.637Z,1.70
2022-09-06T21:58:44.089Z,1.50
2022-09-06T22:01:13.821Z,1.50
2022-09-06T22:03:41.720Z,1.80
2022-09-06T22:06:10.702Z,1.67
2022-09-06T22:08:39.012Z,1.63
2022-09-06T22:11:11.858Z,1.77
2022-09-06T22:13:40.112Z,1.60
2022-09-06T22:16:08.935Z,1.90
2022-09-06T22:18:38.509Z,1.50
2022-09-06T22:21:08.558Z,1.63
2022-09-06T22:23:36.651Z,1.80
2022-09-06T22:26:06.898Z,1.73
2022-09-06T22:28:36.324Z,1.30
2022-09-06T22:31:04.305Z,1.53
2022-09-06T22:33:32.421Z,1.53
2022-09-06T22:36:01.924Z,1.50
2022-09-06T22:38:31.117Z,1.60
2022-09-06T22:40:59.345Z,1.60
2022-09-06T22:43:27.429Z,2.03
2022-09-06T22:45:55.302Z,1.40
2022-09-06T22:48:23.233Z,1.50
2022-09-06T22:50:51.137Z,1.77
2022-09-06T22:53:20.836Z,1.60
2022-09-06T22:55:49.019Z,1.60
2022-09-06T22:58:16.949Z,1.70
2022-09-06T23:00:45.656Z,1.70
2022-09-06T23:03:13.645Z,1.60
2022-09-06T23:05:42.219Z,1.57
2022-09-06T23:08:10.000Z,1.60
2022-09-06T23:10:43.109Z,1.50
2022-09-06T23:13:11.524Z,1.40
2022-09-06T23:15:41.712Z,1.60
2022-09-06T23:18:09.772Z,1.50
2022-09-06T23:20:38.057Z,1.77
2022-09-06T23:23:07.482Z,1.60
2022-09-06T23:25:38.773Z,1.70
2022-09-06T23:28:07.991Z,1.70
2022-09-06T23:30:38.514Z,1.83
2022-09-06T23:33:06.706Z,1.80
2022-09-06T23:35:34.533Z,1.50
2022-09-06T23:38:02.376Z,1.50
2022-09-06T23:40:30.162Z,1.70
2022-09-06T23:42:57.990Z,1.50
2022-09-06T23:45:27.292Z,1.70
2022-09-06T23:47:55.144Z,1.50
2022-09-06T23:50:23.046Z,1.77
2022-09-06T23:52:50.922Z,1.87
2022-09-06T23:55:18.742Z,1.63
2022-09-06T23:57:46.606Z,1.70
